createdAt,value
2022-11-21T00:00:40.668Z,41.50
2022-11-21T00:03:08.505Z,38.03
2022-11-21T00:05:40.363Z,37.60
2022-11-21T00:08:08.091Z,40.67
2022-11-21T00:10:37.180Z,39.57
2022-11-21T00:13:07.023Z,37.37
2022-11-21T00:15:35.601Z,40.50
2022-11-21T00:18:03.764Z,40.20
2022-11-21T00:20:32.124Z,41.10
2022-11-21T00:22:59.684Z,41.10
2022-11-21T00:25:27.595Z,44.00
2022-11-21T00:27:55.317Z,43.00
2022-11-21T00:30:24.366Z,48.23
2022-11-21T00:32:51.947Z,51.17
2022-11-21T00:35:19.585Z,50.90
2022-11-21T00:37:48.759Z,53.00
2022-11-21T00:40:16.776Z,51.70
2022-11-21T00:42:44.564Z,50.37
2022-11-21T00:45:12.209Z,49.30
2022-11-21T00:47:41.149Z,51.53
2022-11-21T00:50:09.514Z,55.40
2022-11-21T00:52:37.116Z,55.17
2022-11-21T00:55:05.284Z,52.90
2022-11-21T00:57:33.038Z,55.30
2022-11-21T01:00:00.832Z,51.17
2022-11-21T01:02:28.497Z,48.60
2022-11-21T01:04:57.674Z,50.40
2022-11-21T01:07:25.476Z,52.77
2022-11-21T01:09:53.368Z,49.07
2022-11-21T01:12:21.021Z,48.10
2022-11-21T01:14:48.625Z,49.77
2022-11-21T01:17:16.329Z,54.03
2022-11-21T01:19:44.214Z,56.80
2022-11-21T01:22:13.346Z,57.33
2022-11-21T01:24:40.993Z,54.50
2022-11-21T01:27:08.704Z,53.97
2022-11-21T01:29:36.379Z,56.70
2022-11-21T01:32:03.981Z,53.60
2022-11-21T01:34:31.982Z,56.80
2022-11-21T01:36:59.540Z,48.77
2022-11-21T01:39:28.534Z,59.13
2022-11-21T01:41:56.221Z,55.53
2022-11-21T01:44:25.016Z,60.47
2022-11-21T01:46:53.519Z,56.60
2022-11-21T01:49:22.056Z,55.27
2022-11-21T01:51:51.789Z,59.30
2022-11-21T01:54:21.096Z,59.20
2022-11-21T01:56:52.013Z,54.70
2022-11-21T01:59:22.964Z,52.17
2022-11-21T02:01:54.289Z,53.83
2022-11-21T02:04:23.087Z,52.50
2022-11-21T02:06:50.893Z,49.33
2022-11-21T02:09:19.328Z,53.97
2022-11-21T02:11:48.894Z,49.83
2022-11-21T02:14:18.965Z,49.80
2022-11-21T02:16:47.152Z,59.27
2022-11-21T02:19:19.157Z,58.53
2022-11-21T02:21:49.380Z,59.30
2022-11-21T02:24:20.141Z,54.03
2022-11-21T02:26:50.096Z,57.27
2022-11-21T02:29:18.062Z,60.13
2022-11-21T02:31:45.662Z,60.37
2022-11-21T02:34:13.892Z,66.60
2022-11-21T02:36:43.052Z,60.60
2022-11-21T02:39:13.112Z,70.00
2022-11-21T02:41:43.901Z,67.87
2022-11-21T02:44:15.958Z,71.30
2022-11-21T02:46:48.450Z,76.40
2022-11-21T02:49:19.082Z,66.47
2022-11-21T02:51:46.742Z,68.83
2022-11-21T02:54:14.381Z,67.97
2022-11-21T02:56:42.092Z,66.47
2022-11-21T02:59:09.718Z,66.87
2022-11-21T03:01:50.027Z,74.30
2022-11-21T03:04:18.621Z,70.50
2022-11-21T03:06:46.378Z,75.03
2022-11-21T03:09:14.166Z,71.00
2022-11-21T03:11:42.184Z,70.27
2022-11-21T03:14:09.955Z,81.23
2022-11-21T03:16:38.907Z,80.03
2022-11-21T03:19:06.805Z,85.33
2022-11-21T03:21:34.402Z,73.50
2022-11-21T03:24:02.221Z,79.40
2022-11-21T03:26:29.904Z,72.17
2022-11-21T03:28:57.546Z,75.63
2022-11-21T03:31:25.143Z,93.83
2022-11-21T03:33:54.479Z,78.07
2022-11-21T03:36:22.095Z,93.87
2022-11-21T03:38:49.706Z,65.83
2022-11-21T03:41:32.239Z,75.03
2022-11-21T03:44:00.466Z,74.70
2022-11-21T03:46:28.420Z,76.77
2022-11-21T03:48:57.911Z,77.77
2022-11-21T03:51:25.956Z,77.27
2022-11-21T03:53:53.834Z,80.93
2022-11-21T03:56:21.755Z,78.67
2022-11-21T03:58:49.343Z,77.30
2022-11-21T04:01:17.605Z,72.13
2022-11-21T04:03:46.098Z,72.80
2022-11-21T04:06:15.902Z,75.80
2022-11-21T04:08:45.271Z,81.83
2022-11-21T04:11:13.143Z,88.83
2022-11-21T04:13:40.974Z,84.47
2022-11-21T04:16:08.700Z,86.07
2022-11-21T04:18:36.715Z,80.53
2022-11-21T04:21:05.117Z,90.70
2022-11-21T04:23:34.404Z,83.17
2022-11-21T04:26:02.580Z,89.60
2022-11-21T04:28:30.718Z,79.47
2022-11-21T04:31:05.766Z,87.90
2022-11-21T04:33:36.730Z,86.63
2022-11-21T04:36:05.436Z,79.20
2022-11-21T04:38:34.568Z,73.37
2022-11-21T04:41:02.180Z,79.87
2022-11-21T04:43:30.329Z,76.57
2022-11-21T04:45:57.900Z,73.83
2022-11-21T04:48:25.706Z,83.93
2022-11-21T04:50:53.520Z,82.73
2022-11-21T04:53:21.125Z,82.53
2022-11-21T04:55:50.145Z,87.97
2022-11-21T04:58:18.444Z,77.47
2022-11-21T05:00:46.029Z,75.03
2022-11-21T05:03:13.863Z,94.70
2022-11-21T05:05:41.673Z,76.27
2022-11-21T05:08:09.474Z,104.93
2022-11-21T05:10:57.145Z,89.77
2022-11-21T05:13:25.169Z,89.20
2022-11-21T05:18:44.685Z,91.83
2022-11-21T05:21:12.675Z,85.80
2022-11-21T05:23:40.595Z,88.10
2022-11-21T05:26:08.165Z,86.77
2022-11-21T05:28:37.337Z,74.77
2022-11-21T05:31:04.951Z,74.80
2022-11-21T05:33:33.001Z,80.53
2022-11-21T05:36:01.211Z,74.60
2022-11-21T05:38:28.841Z,73.70
2022-11-21T05:40:56.476Z,71.87
2022-11-21T05:43:42.302Z,68.67
2022-11-21T05:46:12.383Z,72.37
2022-11-21T05:48:40.039Z,77.60
2022-11-21T05:51:07.709Z,65.20
2022-11-21T05:53:35.301Z,65.93
2022-11-21T05:56:04.897Z,61.80
2022-11-21T05:58:32.558Z,67.57
2022-11-21T06:01:01.091Z,71.00
2022-11-21T06:03:32.010Z,72.97
2022-11-21T06:06:03.869Z,69.63
2022-11-21T06:08:32.787Z,78.43
2022-11-21T06:11:00.368Z,73.17
2022-11-21T06:13:28.272Z,69.47
2022-11-21T06:15:59.570Z,75.37
2022-11-21T06:18:27.666Z,82.20
2022-11-21T06:21:01.442Z,82.47
2022-11-21T06:23:29.081Z,79.10
2022-11-21T06:25:58.043Z,92.30
2022-11-21T06:28:26.334Z,80.53
2022-11-21T06:30:54.427Z,90.00
2022-11-21T06:33:22.576Z,75.90
2022-11-21T06:35:50.225Z,75.57
2022-11-21T06:38:19.763Z,76.90
2022-11-21T06:40:47.707Z,72.87
2022-11-21T06:43:15.338Z,78.47
2022-11-21T06:45:42.924Z,78.23
2022-11-21T06:48:10.510Z,79.50
2022-11-21T06:50:39.293Z,80.87
2022-11-21T06:53:06.982Z,78.20
2022-11-21T06:55:36.212Z,75.83
2022-11-21T06:58:03.933Z,86.67
2022-11-21T07:00:31.828Z,73.30
2022-11-21T07:03:03.289Z,78.50
2022-11-21T07:05:31.673Z,82.33
2022-11-21T07:07:59.921Z,75.87
2022-11-21T07:10:27.829Z,77.97
2022-11-21T07:13:17.020Z,77.17
2022-11-21T07:15:44.942Z,86.23
2022-11-21T07:18:13.105Z,75.57
2022-11-21T07:20:41.502Z,73.33
2022-11-21T07:23:09.794Z,82.90
2022-11-21T07:25:37.715Z,73.73
2022-11-21T07:28:07.945Z,78.87
2022-11-21T07:30:35.823Z,77.03
2022-11-21T07:33:04.396Z,72.80
2022-11-21T07:35:32.683Z,78.77
2022-11-21T07:38:00.357Z,81.23
2022-11-21T07:40:28.026Z,80.27
2022-11-21T07:42:55.812Z,88.20
2022-11-21T07:45:24.834Z,83.30
2022-11-21T07:47:58.402Z,89.83
2022-11-21T07:50:26.166Z,93.70
2022-11-21T07:52:57.552Z,95.80
2022-11-21T07:55:25.351Z,110.40
2022-11-21T07:57:59.119Z,102.43
2022-11-21T08:00:28.260Z,103.17
2022-11-21T08:02:56.431Z,104.93
2022-11-21T08:05:24.099Z,115.00
2022-11-21T08:07:52.573Z,106.83
2022-11-21T08:10:20.235Z,106.77
2022-11-21T08:12:48.109Z,106.00
2022-11-21T08:15:15.757Z,116.60
2022-11-21T08:17:45.059Z,103.70
2022-11-21T08:20:13.232Z,114.23
2022-11-21T08:22:41.079Z,117.87
2022-11-21T08:25:09.909Z,111.60
2022-11-21T08:27:38.195Z,119.07
2022-11-21T08:30:07.199Z,104.40
2022-11-21T08:32:35.063Z,90.43
2022-11-21T08:35:04.472Z,92.20
2022-11-21T08:37:32.898Z,76.70
2022-11-21T08:40:00.743Z,68.70
2022-11-21T08:42:28.563Z,76.60
2022-11-21T08:44:56.588Z,78.40
2022-11-21T08:47:24.374Z,78.53
2022-11-21T08:49:52.072Z,90.30
2022-11-21T08:52:21.626Z,93.73
2022-11-21T08:54:49.367Z,85.97
2022-11-21T08:57:16.969Z,78.47
2022-11-21T08:59:45.024Z,75.30
2022-11-21T09:02:12.628Z,72.93
2022-11-21T09:04:40.727Z,67.80
2022-11-21T09:07:08.439Z,69.10
2022-11-21T09:09:37.579Z,74.20
2022-11-21T09:12:05.477Z,75.30
2022-11-21T09:14:50.630Z,76.00
2022-11-21T09:17:35.964Z,72.97
2022-11-21T09:20:04.160Z,85.87
2022-11-21T09:22:31.853Z,88.90
2022-11-21T09:25:01.424Z,101.17
2022-11-21T09:27:29.124Z,89.87
2022-11-21T09:29:56.726Z,98.83
2022-11-21T09:32:25.008Z,89.57
2022-11-21T09:34:52.647Z,100.80
2022-11-21T09:37:20.285Z,91.40
2022-11-21T09:39:49.005Z,110.50
2022-11-21T09:42:27.503Z,101.93
2022-11-21T09:45:01.977Z,93.90
2022-11-21T09:47:32.085Z,100.27
2022-11-21T09:50:01.013Z,97.13
2022-11-21T09:52:33.110Z,94.87
2022-11-21T09:55:02.885Z,84.07
2022-11-21T09:57:35.154Z,79.10
2022-11-21T10:00:05.290Z,82.00
2022-11-21T10:02:40.703Z,76.53
2022-11-21T10:05:14.081Z,91.17
2022-11-21T10:07:42.954Z,87.47
2022-11-21T10:10:18.804Z,66.80
2022-11-21T10:12:55.326Z,95.33
2022-11-21T10:15:32.974Z,72.03
2022-11-21T10:18:08.602Z,77.60
2022-11-21T10:20:42.826Z,84.40
2022-11-21T10:23:24.467Z,81.00
2022-11-21T10:25:56.063Z,68.53
2022-11-21T10:28:29.614Z,65.20
2022-11-21T10:30:59.078Z,68.03
2022-11-21T10:33:29.479Z,56.50
2022-11-21T10:35:58.720Z,56.50
2022-11-21T10:38:29.044Z,53.53
2022-11-21T10:41:01.003Z,54.60
2022-11-21T10:43:53.147Z,52.27
2022-11-21T10:46:20.913Z,54.10
2022-11-21T10:48:55.986Z,57.10
2022-11-21T10:51:28.738Z,54.20
2022-11-21T10:54:24.723Z,47.13
2022-11-21T10:56:55.143Z,49.37
2022-11-21T10:59:30.422Z,50.20
2022-11-21T11:02:00.053Z,47.43
2022-11-21T11:04:29.684Z,50.90
2022-11-21T11:07:00.616Z,47.60
2022-11-21T11:09:29.508Z,40.10
2022-11-21T11:12:15.962Z,42.33
2022-11-21T11:14:50.584Z,44.83
2022-11-21T11:17:18.523Z,38.83
2022-11-21T11:20:00.399Z,40.50
2022-11-21T11:22:29.709Z,35.97
2022-11-21T11:25:00.559Z,33.03
2022-11-21T11:27:29.720Z,31.70
2022-11-21T11:30:06.078Z,32.20
2022-11-21T11:32:36.008Z,27.70
2022-11-21T11:35:09.470Z,29.00
2022-11-21T11:38:02.445Z,25.20
2022-11-21T11:40:33.422Z,25.47
2022-11-21T11:43:36.882Z,25.57
2022-11-21T11:46:37.989Z,25.07
2022-11-21T11:49:22.423Z,24.77
2022-11-21T11:51:52.253Z,20.87
2022-11-21T11:54:21.829Z,20.67
2022-11-21T11:56:49.556Z,19.60
2022-11-21T11:59:21.456Z,21.00
2022-11-21T12:01:54.780Z,20.43
2022-11-21T12:04:23.940Z,19.13
2022-11-21T12:09:43.855Z,21.13
2022-11-21T12:12:15.659Z,21.40
2022-11-21T12:15:11.231Z,21.40
2022-11-21T12:17:43.283Z,21.80
2022-11-21T12:20:15.889Z,21.50
2022-11-21T12:22:43.861Z,21.10
2022-11-21T12:25:12.306Z,22.10
2022-11-21T12:27:42.206Z,20.97
2022-11-21T12:30:31.072Z,23.37
2022-11-21T12:33:08.085Z,20.83
2022-11-21T12:35:47.060Z,21.63
2022-11-21T12:38:25.613Z,21.80
2022-11-21T12:41:00.375Z,22.67
2022-11-21T12:43:31.911Z,21.90
2022-11-21T12:46:03.088Z,24.70
2022-11-21T12:49:02.280Z,23.43
2022-11-21T12:52:06.981Z,23.83
2022-11-21T12:54:53.788Z,24.70
2022-11-21T12:57:22.344Z,26.53
2022-11-21T12:59:55.142Z,28.70
2022-11-21T13:02:35.784Z,25.07
2022-11-21T13:05:05.955Z,30.20
2022-11-21T13:07:35.640Z,30.00
2022-11-21T13:10:05.148Z,33.20
2022-11-21T13:12:37.520Z,26.10
2022-11-21T13:15:10.436Z,27.60
2022-11-21T13:17:42.554Z,27.67
2022-11-21T13:20:18.680Z,30.33
2022-11-21T13:22:55.056Z,28.57
2022-11-21T13:25:43.333Z,34.20
2022-11-21T13:28:24.868Z,30.67
2022-11-21T13:30:53.377Z,30.40
2022-11-21T13:33:36.086Z,29.40
2022-11-21T13:36:07.896Z,28.73
2022-11-21T13:38:50.929Z,30.57
2022-11-21T13:42:09.946Z,32.30
2022-11-21T13:44:41.474Z,31.83
2022-11-21T13:47:12.506Z,30.73
2022-11-21T13:49:46.982Z,26.03
2022-11-21T13:52:23.073Z,30.23
2022-11-21T13:55:04.616Z,27.43
2022-11-21T13:57:54.832Z,30.30
2022-11-21T14:00:32.179Z,29.10
2022-11-21T14:03:24.401Z,28.60
2022-11-21T14:06:00.523Z,28.27
2022-11-21T14:08:30.285Z,25.87
2022-11-21T14:10:58.448Z,29.33
2022-11-21T14:13:28.945Z,27.40
2022-11-21T14:16:10.097Z,26.50
2022-11-21T14:18:39.255Z,27.97
2022-11-21T14:21:09.040Z,29.30
2022-11-21T14:23:44.887Z,29.30
2022-11-21T14:26:13.822Z,29.03
2022-11-21T14:28:41.840Z,29.57
2022-11-21T14:31:12.241Z,29.50
2022-11-21T14:33:41.320Z,30.40
2022-11-21T14:36:10.960Z,31.07
2022-11-21T14:38:43.341Z,33.60
2022-11-21T14:41:28.983Z,28.17
2022-11-21T14:44:04.254Z,30.80
2022-11-21T14:46:33.341Z,35.70
2022-11-21T14:49:13.927Z,31.13
2022-11-21T14:51:41.902Z,32.30
2022-11-21T14:54:14.284Z,34.83
2022-11-21T14:56:42.325Z,37.57
2022-11-21T14:59:16.357Z,39.13
2022-11-21T15:01:56.010Z,29.90
2022-11-21T15:04:27.458Z,32.03
2022-11-21T15:06:55.361Z,31.17
2022-11-21T15:12:13.497Z,32.90
2022-11-21T15:14:44.241Z,33.73
2022-11-21T15:17:13.835Z,28.43
2022-11-21T15:19:42.672Z,31.00
2022-11-21T15:22:22.025Z,32.30
2022-11-21T15:24:51.173Z,31.17
2022-11-21T15:27:31.098Z,33.87
2022-11-21T15:30:02.849Z,32.53
2022-11-21T15:32:31.506Z,33.10
2022-11-21T15:34:59.189Z,36.20
2022-11-21T15:37:27.812Z,38.40
2022-11-21T15:42:44.059Z,35.80
2022-11-21T15:45:24.204Z,35.83
2022-11-21T15:47:52.338Z,38.33
2022-11-21T15:50:23.404Z,34.03
2022-11-21T15:52:51.728Z,30.57
2022-11-21T15:55:22.279Z,28.63
2022-11-21T15:57:50.011Z,28.53
2022-11-21T16:00:18.741Z,28.90
2022-11-21T16:02:47.434Z,32.30
2022-11-21T16:05:16.240Z,28.53
2022-11-21T16:07:44.135Z,30.87
2022-11-21T16:10:19.793Z,27.30
2022-11-21T16:12:52.204Z,28.10
2022-11-21T16:15:20.156Z,31.70
2022-11-21T16:17:48.056Z,27.47
2022-11-21T16:20:15.770Z,29.67
2022-11-21T16:22:47.755Z,30.70
2022-11-21T16:25:16.426Z,36.37
2022-11-21T16:27:44.430Z,32.97
2022-11-21T16:30:14.292Z,32.43
2022-11-21T16:32:42.396Z,29.67
2022-11-21T16:35:10.782Z,31.77
2022-11-21T16:37:38.426Z,31.80
2022-11-21T16:40:06.825Z,33.03
2022-11-21T16:42:35.044Z,32.57
2022-11-21T16:45:02.750Z,31.00
2022-11-21T16:47:31.968Z,31.00
2022-11-21T16:50:00.667Z,34.13
2022-11-21T16:52:28.261Z,33.10
2022-11-21T16:54:56.060Z,30.03
2022-11-21T16:57:24.235Z,34.23
2022-11-21T16:59:52.013Z,37.00
2022-11-21T17:02:19.597Z,41.63
2022-11-21T17:04:50.535Z,38.63
2022-11-21T17:07:18.466Z,36.97
2022-11-21T17:09:46.485Z,39.80
2022-11-21T17:12:14.261Z,38.90
2022-11-21T17:14:42.099Z,39.20
2022-11-21T17:17:09.739Z,41.47
2022-11-21T17:19:38.114Z,39.13
2022-11-21T17:22:07.226Z,41.37
2022-11-21T17:24:35.434Z,38.83
2022-11-21T17:27:03.231Z,41.67
2022-11-21T17:29:31.127Z,40.90
2022-11-21T17:31:59.048Z,42.13
2022-11-21T17:34:32.762Z,43.60
2022-11-21T17:37:01.717Z,43.17
2022-11-21T17:39:32.212Z,43.90
2022-11-21T17:42:01.517Z,42.93
2022-11-21T17:44:30.249Z,45.50
2022-11-21T17:47:02.297Z,46.13
2022-11-21T17:49:37.306Z,46.53
2022-11-21T17:52:07.146Z,44.37
2022-11-21T17:54:36.474Z,49.43
2022-11-21T17:57:05.251Z,49.40
2022-11-21T17:59:35.086Z,47.30
2022-11-21T18:02:03.112Z,44.00
2022-11-21T18:04:31.125Z,47.27
2022-11-21T18:06:59.096Z,47.37
2022-11-21T18:09:26.979Z,51.10
2022-11-21T18:11:57.700Z,53.83
2022-11-21T18:14:26.604Z,50.93
2022-11-21T18:16:54.800Z,51.80
2022-11-21T18:19:24.343Z,58.93
2022-11-21T18:21:53.177Z,50.13
2022-11-21T18:24:21.126Z,54.10
2022-11-21T18:26:49.181Z,49.97
2022-11-21T18:32:06.881Z,51.40
2022-11-21T18:34:34.452Z,46.27
2022-11-21T18:37:02.294Z,50.60
2022-11-21T18:39:30.282Z,53.53
2022-11-21T18:41:58.168Z,54.97
2022-11-21T18:44:27.118Z,51.87
2022-11-21T18:46:55.116Z,52.10
2022-11-21T18:49:23.106Z,49.90
2022-11-21T18:51:51.058Z,49.80
2022-11-21T18:54:18.777Z,48.03
2022-11-21T18:56:47.286Z,51.57
2022-11-21T18:59:15.315Z,51.83
2022-11-21T19:01:44.835Z,49.73
2022-11-21T19:04:13.002Z,48.27
2022-11-21T19:06:40.645Z,49.50
2022-11-21T19:09:08.506Z,47.20
2022-11-21T19:11:36.399Z,50.43
2022-11-21T19:14:04.131Z,59.83
2022-11-21T19:16:33.893Z,51.77
2022-11-21T19:19:33.061Z,46.83
2022-11-21T19:21:53.860Z,51.00
2022-11-21T19:24:21.531Z,44.80
2022-11-21T19:26:50.440Z,46.53
2022-11-21T19:29:18.448Z,44.23
2022-11-21T19:31:48.145Z,48.10
2022-11-21T19:34:17.279Z,45.93
2022-11-21T19:36:45.280Z,44.00
2022-11-21T19:39:13.294Z,48.80
2022-11-21T19:41:41.289Z,42.37
2022-11-21T19:44:08.973Z,41.33
2022-11-21T19:46:38.220Z,43.90
2022-11-21T19:49:06.718Z,44.03
2022-11-21T19:51:36.622Z,49.27
2022-11-21T19:54:04.840Z,46.30
2022-11-21T19:56:32.766Z,44.43
2022-11-21T19:59:00.552Z,42.10
2022-11-21T20:01:28.919Z,47.10
2022-11-21T20:03:57.373Z,39.60
2022-11-21T20:06:27.897Z,39.47
2022-11-21T20:08:58.254Z,37.80
2022-11-21T20:11:26.364Z,40.03
2022-11-21T20:13:54.260Z,40.10
2022-11-21T20:16:24.535Z,39.70
2022-11-21T20:18:52.645Z,37.40
2022-11-21T20:21:20.584Z,36.30
2022-11-21T20:23:48.380Z,34.87
2022-11-21T20:26:18.053Z,31.43
2022-11-21T20:28:46.060Z,30.90
2022-11-21T20:31:15.409Z,33.50
2022-11-21T20:33:43.767Z,34.23
2022-11-21T20:36:12.176Z,32.33
2022-11-21T20:38:41.315Z,30.53
2022-11-21T20:41:09.124Z,30.27
2022-11-21T20:44:25.179Z,31.07
2022-11-21T20:46:26.465Z,30.20
2022-11-21T20:48:56.347Z,30.20
2022-11-21T20:54:12.119Z,32.20
2022-11-21T20:56:43.861Z,34.43
2022-11-21T20:59:14.575Z,34.83
2022-11-21T21:01:42.365Z,36.23
2022-11-21T21:04:10.264Z,34.10
2022-11-21T21:06:39.458Z,37.57
2022-11-21T21:09:07.233Z,34.00
2022-11-21T21:11:51.437Z,31.67
2022-11-21T21:14:21.940Z,36.13
2022-11-21T21:16:49.866Z,32.07
2022-11-21T21:19:17.603Z,31.10
2022-11-21T21:21:45.776Z,32.83
2022-11-21T21:24:13.962Z,31.97
2022-11-21T21:26:43.524Z,33.57
2022-11-21T21:29:12.573Z,31.53
2022-11-21T21:31:48.573Z,33.17
2022-11-21T21:34:19.032Z,30.10
2022-11-21T21:36:46.864Z,28.30
2022-11-21T21:39:14.516Z,26.47
2022-11-21T21:41:44.643Z,31.43
2022-11-21T21:44:12.838Z,28.17
2022-11-21T21:46:41.876Z,25.93
2022-11-21T21:49:09.529Z,28.30
2022-11-21T21:51:37.806Z,31.77
2022-11-21T21:54:06.263Z,29.47
2022-11-21T21:56:34.626Z,29.63
2022-11-21T21:59:02.724Z,28.10
2022-11-21T22:01:31.576Z,35.00
2022-11-21T22:04:02.585Z,28.37
2022-11-21T22:06:30.679Z,26.97
2022-11-21T22:08:58.294Z,28.57
2022-11-21T22:11:27.279Z,30.50
2022-11-21T22:13:56.120Z,30.00
2022-11-21T22:16:24.037Z,29.00
2022-11-21T22:18:51.873Z,31.97
2022-11-21T22:21:21.668Z,29.10
2022-11-21T22:24:23.606Z,35.77
2022-11-21T22:26:37.567Z,46.10
2022-11-21T22:29:05.233Z,32.80
2022-11-21T22:31:33.359Z,37.03
2022-11-21T22:34:01.986Z,33.40
2022-11-21T22:36:30.963Z,37.77
2022-11-21T22:38:58.526Z,36.13
2022-11-21T22:41:27.338Z,36.57
2022-11-21T22:43:55.840Z,35.30
2022-11-21T22:46:24.403Z,40.27
2022-11-21T22:48:54.148Z,39.70
2022-11-21T22:51:23.488Z,38.73
2022-11-21T22:53:52.914Z,38.70
2022-11-21T22:56:21.492Z,39.40
2022-11-21T22:58:49.575Z,42.30
2022-11-21T23:01:18.307Z,39.63
2022-11-21T23:03:47.792Z,44.43
2022-11-21T23:06:16.810Z,42.00
2022-11-21T23:08:52.769Z,42.00
2022-11-21T23:11:22.670Z,44.13
2022-11-21T23:13:50.417Z,38.67
2022-11-21T23:16:18.754Z,42.03
2022-11-21T23:18:46.716Z,44.63
2022-11-21T23:21:15.724Z,49.73
2022-11-21T23:23:44.125Z,45.63
2022-11-21T23:26:14.122Z,39.47
2022-11-21T23:28:42.109Z,39.87
2022-11-21T23:31:10.579Z,39.80
2022-11-21T23:33:38.551Z,40.93
2022-11-21T23:36:06.332Z,39.97
2022-11-21T23:38:35.333Z,40.93
2022-11-21T23:41:03.883Z,38.73
2022-11-21T23:43:32.888Z,39.97
2022-11-21T23:46:00.928Z,34.60
2022-11-21T23:48:30.313Z,45.77
2022-11-21T23:50:58.027Z,35.83
2022-11-21T23:53:25.848Z,40.33
2022-11-21T23:55:53.520Z,38.37
2022-11-21T23:58:21.583Z,38.40
